sensor_id;sensor_type;location;lat;lon;timestamp;temperature;humidity
7360;DHT22;3720;48.274;7.796;2022-10-16T00:01:30;15.70;99.90
7360;DHT22;3720;48.274;7.796;2022-10-16T00:04:02;15.70;99.90
7360;DHT22;3720;48.274;7.796;2022-10-16T00:06:34;15.80;99.90
7360;DHT22;3720;48.274;7.796;2022-10-16T00:09:06;15.90;99.90
7360;DHT22;3720;48.274;7.796;2022-10-16T00:11:40;15.80;99.90
7360;DHT22;3720;48.274;7.796;2022-10-16T00:14:14;15.90;99.90
7360;DHT22;3720;48.274;7.796;2022-10-16T00:16:46;15.90;99.90
7360;DHT22;3720;48.274;7.796;2022-10-16T00:19:18;15.90;99.90
7360;DHT22;3720;48.274;7.796;2022-10-16T00:21:50;15.90;99.90
7360;DHT22;3720;48.274;7.796;2022-10-16T00:24:22;15.90;99.90
7360;DHT22;3720;48.274;7.796;2022-10-16T00:26:55;15.90;99.90
7360;DHT22;3720;48.274;7.796;2022-10-16T00:29:27;15.90;99.90
7360;DHT22;3720;48.274;7.796;2022-10-16T00:31:59;15.90;99.90
7360;DHT22;3720;48.274;7.796;2022-10-16T00:34:31;15.90;99.90
7360;DHT22;3720;48.274;7.796;2022-10-16T00:37:03;15.90;99.90
7360;DHT22;3720;48.274;7.796;2022-10-16T00:39:35;15.90;99.90
7360;DHT22;3720;48.274;7.796;2022-10-16T00:42:13;15.90;99.90
7360;DHT22;3720;48.274;7.796;2022-10-16T00:44:49;16.00;99.90
7360;DHT22;3720;48.274;7.796;2022-10-16T00:47:26;16.00;99.90
7360;DHT22;3720;48.274;7.796;2022-10-16T00:50:04;16.00;99.90
7360;DHT22;3720;48.274;7.796;2022-10-16T00:52:41;15.90;99.90
7360;DHT22;3720;48.274;7.796;2022-10-16T00:55:15;16.00;99.90
7360;DHT22;3720;48.274;7.796;2022-10-16T00:57:50;15.90;99.90
7360;DHT22;3720;48.274;7.796;2022-10-16T01:00:24;15.90;99.90
7360;DHT22;3720;48.274;7.796;2022-10-16T01:02:59;15.90;99.90
7360;DHT22;3720;48.274;7.796;2022-10-16T01:05:36;15.90;99.90
7360;DHT22;3720;48.274;7.796;2022-10-16T01:08:13;15.80;99.90
7360;DHT22;3720;48.274;7.796;2022-10-16T01:10:54;15.80;99.90
7360;DHT22;3720;48.274;7.796;2022-10-16T01:13:35;15.70;99.90
7360;DHT22;3720;48.274;7.796;2022-10-16T01:16:12;15.70;99.90
7360;DHT22;3720;48.274;7.796;2022-10-16T01:18:46;15.70;99.90
7360;DHT22;3720;48.274;7.796;2022-10-16T01:21:23;15.70;99.90
7360;DHT22;3720;48.274;7.796;2022-10-16T01:24:03;15.70;99.90
7360;DHT22;3720;48.274;7.796;2022-10-16T01:26:59;15.70;99.90
7360;DHT22;3720;48.274;7.796;2022-10-16T01:29:35;15.60;99.90
7360;DHT22;3720;48.274;7.796;2022-10-16T01:32:15;15.60;99.90
7360;DHT22;3720;48.274;7.796;2022-10-16T01:34:51;15.60;99.90
7360;DHT22;3720;48.274;7.796;2022-10-16T01:37:32;15.60;99.90
7360;DHT22;3720;48.274;7.796;2022-10-16T01:40:07;15.60;99.90
7360;DHT22;3720;48.274;7.796;2022-10-16T01:42:44;15.60;99.90
7360;DHT22;3720;48.274;7.796;2022-10-16T01:45:17;15.50;99.90
7360;DHT22;3720;48.274;7.796;2022-10-16T01:47:51;15.50;99.90
7360;DHT22;3720;48.274;7.796;2022-10-16T01:50:24;15.50;99.90
7360;DHT22;3720;48.274;7.796;2022-10-16T01:52:58;15.40;99.90
7360;DHT22;3720;48.274;7.796;2022-10-16T01:55:35;15.50;99.90
7360;DHT22;3720;48.274;7.796;2022-10-16T01:58:12;15.40;99.90
7360;DHT22;3720;48.274;7.796;2022-10-16T02:00:46;15.40;99.90
7360;DHT22;3720;48.274;7.796;2022-10-16T02:03:19;15.40;99.90
7360;DHT22;3720;48.274;7.796;2022-10-16T02:05:54;15.40;99.90
7360;DHT22;3720;48.274;7.796;2022-10-16T02:08:28;15.40;99.90
7360;DHT22;3720;48.274;7.796;2022-10-16T02:11:02;15.40;99.90
7360;DHT22;3720;48.274;7.796;2022-10-16T02:13:38;15.40;99.90
7360;DHT22;3720;48.274;7.796;2022-10-16T02:16:12;15.40;99.90
7360;DHT22;3720;48.274;7.796;2022-10-16T02:18:44;15.40;99.90
7360;DHT22;3720;48.274;7.796;2022-10-16T02:21:21;15.40;99.90
7360;DHT22;3720;48.274;7.796;2022-10-16T02:23:59;15.40;99.90
7360;DHT22;3720;48.274;7.796;2022-10-16T02:26:37;15.40;99.90
7360;DHT22;3720;48.274;7.796;2022-10-16T02:29:17;15.40;99.90
7360;DHT22;3720;48.274;7.796;2022-10-16T02:31:52;15.40;99.90
7360;DHT22;3720;48.274;7.796;2022-10-16T02:34:26;15.30;99.90
7360;DHT22;3720;48.274;7.796;2022-10-16T02:37:01;15.30;99.90
7360;DHT22;3720;48.274;7.796;2022-10-16T02:39:34;15.20;99.90
7360;DHT22;3720;48.274;7.796;2022-10-16T02:42:10;15.20;99.90
7360;DHT22;3720;48.274;7.796;2022-10-16T02:44:44;15.20;99.90
7360;DHT22;3720;48.274;7.796;2022-10-16T02:47:16;15.20;99.90
7360;DHT22;3720;48.274;7.796;2022-10-16T02:49:48;15.20;99.90
7360;DHT22;3720;48.274;7.796;2022-10-16T02:52:20;15.20;99.90
7360;DHT22;3720;48.274;7.796;2022-10-16T02:54:52;15.20;99.90
7360;DHT22;3720;48.274;7.796;2022-10-16T02:57:24;15.20;99.90
7360;DHT22;3720;48.274;7.796;2022-10-16T02:59:58;15.20;99.90
7360;DHT22;3720;48.274;7.796;2022-10-16T03:02:30;15.20;99.90
7360;DHT22;3720;48.274;7.796;2022-10-16T03:05:02;15.20;99.90
7360;DHT22;3720;48.274;7.796;2022-10-16T03:07:34;15.10;99.90
7360;DHT22;3720;48.274;7.796;2022-10-16T03:10:06;15.10;99.90
7360;DHT22;3720;48.274;7.796;2022-10-16T03:12:39;15.10;99.90
7360;DHT22;3720;48.274;7.796;2022-10-16T03:15:12;15.10;99.90
7360;DHT22;3720;48.274;7.796;2022-10-16T03:17:44;15.10;99.90
7360;DHT22;3720;48.274;7.796;2022-10-16T03:20:16;15.20;99.90
7360;DHT22;3720;48.274;7.796;2022-10-16T03:22:47;15.20;99.90
7360;DHT22;3720;48.274;7.796;2022-10-16T03:25:19;15.10;99.90
7360;DHT22;3720;48.274;7.796;2022-10-16T03:27:52;15.10;99.90
7360;DHT22;3720;48.274;7.796;2022-10-16T03:30:25;15.10;99.90
7360;DHT22;3720;48.274;7.796;2022-10-16T03:32:57;15.10;99.90
7360;DHT22;3720;48.274;7.796;2022-10-16T03:35:29;15.10;99.90
7360;DHT22;3720;48.274;7.796;2022-10-16T03:38:01;15.10;99.90
7360;DHT22;3720;48.274;7.796;2022-10-16T03:40:33;15.10;99.90
7360;DHT22;3720;48.274;7.796;2022-10-16T03:43:04;15.10;99.90
7360;DHT22;3720;48.274;7.796;2022-10-16T03:45:38;15.10;99.90
7360;DHT22;3720;48.274;7.796;2022-10-16T03:48:10;15.10;99.90
7360;DHT22;3720;48.274;7.796;2022-10-16T03:50:42;15.10;99.90
7360;DHT22;3720;48.274;7.796;2022-10-16T03:53:14;15.20;99.90
7360;DHT22;3720;48.274;7.796;2022-10-16T03:55:46;15.20;99.90
7360;DHT22;3720;48.274;7.796;2022-10-16T03:58:18;15.20;99.90
7360;DHT22;3720;48.274;7.796;2022-10-16T04:00:51;15.20;99.90
7360;DHT22;3720;48.274;7.796;2022-10-16T04:03:24;15.20;99.90
7360;DHT22;3720;48.274;7.796;2022-10-16T04:05:56;15.20;99.90
7360;DHT22;3720;48.274;7.796;2022-10-16T04:08:28;15.10;99.90
7360;DHT22;3720;48.274;7.796;2022-10-16T04:11:00;15.10;99.90
7360;DHT22;3720;48.274;7.796;2022-10-16T04:13:32;15.00;99.90
7360;DHT22;3720;48.274;7.796;2022-10-16T04:16:05;15.00;99.90
7360;DHT22;3720;48.274;7.796;2022-10-16T04:18:37;14.90;99.90
7360;DHT22;3720;48.274;7.796;2022-10-16T04:21:09;14.90;99.90
7360;DHT22;3720;48.274;7.796;2022-10-16T04:23:42;14.90;99.90
7360;DHT22;3720;48.274;7.796;2022-10-16T04:26:14;14.90;99.90
7360;DHT22;3720;48.274;7.796;2022-10-16T04:28:46;14.90;99.90
7360;DHT22;3720;48.274;7.796;2022-10-16T04:31:20;14.90;99.90
7360;DHT22;3720;48.274;7.796;2022-10-16T04:33:52;14.90;99.90
7360;DHT22;3720;48.274;7.796;2022-10-16T04:36:24;14.90;99.90
7360;DHT22;3720;48.274;7.796;2022-10-16T04:38:56;14.90;99.90
7360;DHT22;3720;48.274;7.796;2022-10-16T04:41:28;14.90;99.90
7360;DHT22;3720;48.274;7.796;2022-10-16T04:44:00;14.90;99.90
7360;DHT22;3720;48.274;7.796;2022-10-16T04:46:34;14.90;99.90
7360;DHT22;3720;48.274;7.796;2022-10-16T04:49:06;14.90;99.90
7360;DHT22;3720;48.274;7.796;2022-10-16T04:51:38;14.90;99.90
7360;DHT22;3720;48.274;7.796;2022-10-16T04:54:10;14.90;99.90
7360;DHT22;3720;48.274;7.796;2022-10-16T04:56:42;14.90;99.90
7360;DHT22;3720;48.274;7.796;2022-10-16T04:59:18;14.90;99.90
7360;DHT22;3720;48.274;7.796;2022-10-16T05:01:52;15.00;99.90
7360;DHT22;3720;48.274;7.796;2022-10-16T05:04:24;14.90;99.90
7360;DHT22;3720;48.274;7.796;2022-10-16T05:06:56;14.90;99.90
7360;DHT22;3720;48.274;7.796;2022-10-16T05:09:28;15.00;99.90
7360;DHT22;3720;48.274;7.796;2022-10-16T05:12:00;15.00;99.90
7360;DHT22;3720;48.274;7.796;2022-10-16T05:14:31;14.90;99.90
7360;DHT22;3720;48.274;7.796;2022-10-16T05:17:05;15.00;99.90
7360;DHT22;3720;48.274;7.796;2022-10-16T05:19:36;14.90;99.90
7360;DHT22;3720;48.274;7.796;2022-10-16T05:22:09;15.00;99.90
7360;DHT22;3720;48.274;7.796;2022-10-16T05:24:40;15.00;99.90
7360;DHT22;3720;48.274;7.796;2022-10-16T05:27:12;15.00;99.90
7360;DHT22;3720;48.274;7.796;2022-10-16T05:29:49;15.00;99.90
7360;DHT22;3720;48.274;7.796;2022-10-16T05:32:22;15.00;99.90
7360;DHT22;3720;48.274;7.796;2022-10-16T05:34:54;15.00;99.90
7360;DHT22;3720;48.274;7.796;2022-10-16T05:37:27;15.00;99.90
7360;DHT22;3720;48.274;7.796;2022-10-16T05:39:59;15.00;99.90
7360;DHT22;3720;48.274;7.796;2022-10-16T05:42:31;14.90;99.90
7360;DHT22;3720;48.274;7.796;2022-10-16T05:45:04;14.80;99.90
7360;DHT22;3720;48.274;7.796;2022-10-16T05:47:37;14.90;99.90
7360;DHT22;3720;48.274;7.796;2022-10-16T05:50:09;14.80;99.90
7360;DHT22;3720;48.274;7.796;2022-10-16T05:52:41;14.80;99.90
7360;DHT22;3720;48.274;7.796;2022-10-16T05:55:13;14.80;99.90
7360;DHT22;3720;48.274;7.796;2022-10-16T05:57:46;14.80;99.90
7360;DHT22;3720;48.274;7.796;2022-10-16T06:00:17;14.80;99.90
7360;DHT22;3720;48.274;7.796;2022-10-16T06:02:51;14.80;99.90
7360;DHT22;3720;48.274;7.796;2022-10-16T06:05:22;14.80;99.90
7360;DHT22;3720;48.274;7.796;2022-10-16T06:07:55;14.80;99.90
7360;DHT22;3720;48.274;7.796;2022-10-16T06:10:26;14.90;99.90
7360;DHT22;3720;48.274;7.796;2022-10-16T06:12:59;14.80;99.90
7360;DHT22;3720;48.274;7.796;2022-10-16T06:15:31;14.80;99.90
7360;DHT22;3720;48.274;7.796;2022-10-16T06:18:04;14.90;99.90
7360;DHT22;3720;48.274;7.796;2022-10-16T06:20:37;14.80;99.90
7360;DHT22;3720;48.274;7.796;2022-10-16T06:23:09;14.80;99.90
7360;DHT22;3720;48.274;7.796;2022-10-16T06:25:41;14.80;99.90
7360;DHT22;3720;48.274;7.796;2022-10-16T06:28:13;14.80;99.90
7360;DHT22;3720;48.274;7.796;2022-10-16T06:30:45;14.90;99.90
7360;DHT22;3720;48.274;7.796;2022-10-16T06:33:19;14.90;99.90
7360;DHT22;3720;48.274;7.796;2022-10-16T06:35:51;14.90;99.90
7360;DHT22;3720;48.274;7.796;2022-10-16T06:38:22;14.90;99.90
7360;DHT22;3720;48.274;7.796;2022-10-16T06:40:54;14.90;99.90
7360;DHT22;3720;48.274;7.796;2022-10-16T06:43:28;15.00;99.90
7360;DHT22;3720;48.274;7.796;2022-10-16T06:46:01;15.00;99.90
7360;DHT22;3720;48.274;7.796;2022-10-16T06:48:35;15.00;99.90
7360;DHT22;3720;48.274;7.796;2022-10-16T06:51:09;15.00;99.90
7360;DHT22;3720;48.274;7.796;2022-10-16T06:53:43;15.10;99.90
7360;DHT22;3720;48.274;7.796;2022-10-16T06:56:17;15.20;99.90
7360;DHT22;3720;48.274;7.796;2022-10-16T06:58:49;15.20;99.90
7360;DHT22;3720;48.274;7.796;2022-10-16T07:01:24;15.30;99.90
7360;DHT22;3720;48.274;7.796;2022-10-16T07:03:57;15.30;99.90
7360;DHT22;3720;48.274;7.796;2022-10-16T07:06:32;15.30;99.90
7360;DHT22;3720;48.274;7.796;2022-10-16T07:09:06;15.40;99.90
7360;DHT22;3720;48.274;7.796;2022-10-16T07:11:39;15.40;99.90
7360;DHT22;3720;48.274;7.796;2022-10-16T07:14:15;15.40;99.90
7360;DHT22;3720;48.274;7.796;2022-10-16T07:16:48;15.50;99.90
7360;DHT22;3720;48.274;7.796;2022-10-16T07:19:31;15.50;99.90
7360;DHT22;3720;48.274;7.796;2022-10-16T07:22:03;15.50;99.90
7360;DHT22;3720;48.274;7.796;2022-10-16T07:24:35;15.60;99.90
7360;DHT22;3720;48.274;7.796;2022-10-16T07:27:07;15.60;99.90
7360;DHT22;3720;48.274;7.796;2022-10-16T07:29:39;15.60;99.90
7360;DHT22;3720;48.274;7.796;2022-10-16T07:32:11;15.70;99.90
7360;DHT22;3720;48.274;7.796;2022-10-16T07:34:44;15.60;99.90
7360;DHT22;3720;48.274;7.796;2022-10-16T07:37:17;15.70;99.90
7360;DHT22;3720;48.274;7.796;2022-10-16T07:39:49;15.70;99.90
7360;DHT22;3720;48.274;7.796;2022-10-16T07:42:21;15.70;99.90
7360;DHT22;3720;48.274;7.796;2022-10-16T07:44:53;15.70;99.90
7360;DHT22;3720;48.274;7.796;2022-10-16T07:47:25;15.70;99.90
7360;DHT22;3720;48.274;7.796;2022-10-16T07:49:58;15.80;99.90
7360;DHT22;3720;48.274;7.796;2022-10-16T07:52:30;15.80;99.90
7360;DHT22;3720;48.274;7.796;2022-10-16T07:55:02;15.90;99.90
7360;DHT22;3720;48.274;7.796;2022-10-16T07:57:34;16.00;99.90
7360;DHT22;3720;48.274;7.796;2022-10-16T08:00:08;16.10;99.90
7360;DHT22;3720;48.274;7.796;2022-10-16T08:02:43;16.20;99.90
7360;DHT22;3720;48.274;7.796;2022-10-16T08:05:17;16.20;99.90
7360;DHT22;3720;48.274;7.796;2022-10-16T08:07:49;16.30;99.90
7360;DHT22;3720;48.274;7.796;2022-10-16T08:10:22;16.40;99.90
7360;DHT22;3720;48.274;7.796;2022-10-16T08:12:55;16.40;99.90
7360;DHT22;3720;48.274;7.796;2022-10-16T08:15:27;16.50;99.90
7360;DHT22;3720;48.274;7.796;2022-10-16T08:18:00;16.60;99.90
7360;DHT22;3720;48.274;7.796;2022-10-16T08:20:34;16.70;99.90
7360;DHT22;3720;48.274;7.796;2022-10-16T08:23:06;16.80;99.90
7360;DHT22;3720;48.274;7.796;2022-10-16T08:25:39;16.80;99.90
7360;DHT22;3720;48.274;7.796;2022-10-16T08:28:11;17.00;99.90
7360;DHT22;3720;48.274;7.796;2022-10-16T08:30:43;17.10;99.90
7360;DHT22;3720;48.274;7.796;2022-10-16T08:33:15;17.20;99.90
7360;DHT22;3720;48.274;7.796;2022-10-16T08:35:52;17.40;99.90
7360;DHT22;3720;48.274;7.796;2022-10-16T08:38:24;17.40;99.90
7360;DHT22;3720;48.274;7.796;2022-10-16T08:41:07;17.50;99.90
7360;DHT22;3720;48.274;7.796;2022-10-16T08:43:55;17.60;99.90
7360;DHT22;3720;48.274;7.796;2022-10-16T08:46:40;17.70;99.90
7360;DHT22;3720;48.274;7.796;2022-10-16T08:49:15;17.80;99.90
7360;DHT22;3720;48.274;7.796;2022-10-16T08:51:48;17.80;99.90
7360;DHT22;3720;48.274;7.796;2022-10-16T08:54:28;18.00;99.90
7360;DHT22;3720;48.274;7.796;2022-10-16T08:57:09;18.00;99.90
7360;DHT22;3720;48.274;7.796;2022-10-16T08:59:41;18.10;99.90
7360;DHT22;3720;48.274;7.796;2022-10-16T09:02:24;18.30;99.90
7360;DHT22;3720;48.274;7.796;2022-10-16T09:05:09;18.50;99.90
7360;DHT22;3720;48.274;7.796;2022-10-16T09:07:50;18.70;99.90
7360;DHT22;3720;48.274;7.796;2022-10-16T09:10:35;19.10;99.90
7360;DHT22;3720;48.274;7.796;2022-10-16T09:13:19;19.40;99.90
7360;DHT22;3720;48.274;7.796;2022-10-16T09:15:58;19.60;99.90
7360;DHT22;3720;48.274;7.796;2022-10-16T09:18:38;19.80;99.90
7360;DHT22;3720;48.274;7.796;2022-10-16T09:21:17;19.80;99.90
7360;DHT22;3720;48.274;7.796;2022-10-16T09:23:51;19.90;99.90
7360;DHT22;3720;48.274;7.796;2022-10-16T09:26:23;20.10;99.90
7360;DHT22;3720;48.274;7.796;2022-10-16T09:28:56;20.20;99.90
7360;DHT22;3720;48.274;7.796;2022-10-16T09:31:27;20.40;99.90
7360;DHT22;3720;48.274;7.796;2022-10-16T09:34:00;20.80;99.90
7360;DHT22;3720;48.274;7.796;2022-10-16T09:36:40;21.10;99.90
7360;DHT22;3720;48.274;7.796;2022-10-16T09:39:15;21.40;99.90
7360;DHT22;3720;48.274;7.796;2022-10-16T09:41:47;21.40;99.90
7360;DHT22;3720;48.274;7.796;2022-10-16T09:44:23;21.40;99.90
7360;DHT22;3720;48.274;7.796;2022-10-16T09:47:03;21.30;99.90
7360;DHT22;3720;48.274;7.796;2022-10-16T09:49:36;21.10;99.90
7360;DHT22;3720;48.274;7.796;2022-10-16T09:52:12;21.00;99.90
7360;DHT22;3720;48.274;7.796;2022-10-16T09:54:54;20.90;99.90
7360;DHT22;3720;48.274;7.796;2022-10-16T09:57:27;20.90;99.90
7360;DHT22;3720;48.274;7.796;2022-10-16T10:00:08;20.80;99.90
7360;DHT22;3720;48.274;7.796;2022-10-16T10:02:40;20.80;99.90
7360;DHT22;3720;48.274;7.796;2022-10-16T10:05:20;20.90;99.90
7360;DHT22;3720;48.274;7.796;2022-10-16T10:07:55;20.90;99.90
7360;DHT22;3720;48.274;7.796;2022-10-16T10:10:30;21.00;99.90
7360;DHT22;3720;48.274;7.796;2022-10-16T10:13:03;21.10;99.90
7360;DHT22;3720;48.274;7.796;2022-10-16T10:15:41;21.10;99.90
7360;DHT22;3720;48.274;7.796;2022-10-16T10:18:17;21.10;99.90
7360;DHT22;3720;48.274;7.796;2022-10-16T10:20:58;21.20;99.90
7360;DHT22;3720;48.274;7.796;2022-10-16T10:23:30;21.30;99.90
7360;DHT22;3720;48.274;7.796;2022-10-16T10:26:08;21.30;99.90
7360;DHT22;3720;48.274;7.796;2022-10-16T10:28:50;21.50;99.90
7360;DHT22;3720;48.274;7.796;2022-10-16T10:31:30;21.50;99.90
7360;DHT22;3720;48.274;7.796;2022-10-16T10:34:18;21.60;99.90
7360;DHT22;3720;48.274;7.796;2022-10-16T10:36:56;21.60;99.90
7360;DHT22;3720;48.274;7.796;2022-10-16T10:39:35;21.70;99.90
7360;DHT22;3720;48.274;7.796;2022-10-16T10:42:18;21.70;99.90
7360;DHT22;3720;48.274;7.796;2022-10-16T10:45:02;21.70;99.90
7360;DHT22;3720;48.274;7.796;2022-10-16T10:47:45;21.80;99.90
7360;DHT22;3720;48.274;7.796;2022-10-16T10:50:24;21.90;99.90
7360;DHT22;3720;48.274;7.796;2022-10-16T10:53:00;22.00;99.90
7360;DHT22;3720;48.274;7.796;2022-10-16T10:55:39;22.00;99.90
7360;DHT22;3720;48.274;7.796;2022-10-16T10:58:42;22.10;99.90
7360;DHT22;3720;48.274;7.796;2022-10-16T11:01:16;22.20;99.90
7360;DHT22;3720;48.274;7.796;2022-10-16T11:04:09;22.30;99.90
7360;DHT22;3720;48.274;7.796;2022-10-16T11:06:48;22.40;99.90
7360;DHT22;3720;48.274;7.796;2022-10-16T11:09:25;22.50;99.90
7360;DHT22;3720;48.274;7.796;2022-10-16T11:12:02;22.60;99.90
7360;DHT22;3720;48.274;7.796;2022-10-16T11:14:42;22.70;99.90
7360;DHT22;3720;48.274;7.796;2022-10-16T11:17:19;22.70;99.90
7360;DHT22;3720;48.274;7.796;2022-10-16T11:19:55;22.90;99.90
7360;DHT22;3720;48.274;7.796;2022-10-16T11:22:32;23.30;99.90
7360;DHT22;3720;48.274;7.796;2022-10-16T11:25:14;23.70;99.90
7360;DHT22;3720;48.274;7.796;2022-10-16T11:27:51;24.00;99.90
7360;DHT22;3720;48.274;7.796;2022-10-16T11:30:27;24.20;99.90
7360;DHT22;3720;48.274;7.796;2022-10-16T11:33:10;24.30;99.90
7360;DHT22;3720;48.274;7.796;2022-10-16T11:35:51;24.30;99.90
7360;DHT22;3720;48.274;7.796;2022-10-16T11:38:28;24.40;99.90
7360;DHT22;3720;48.274;7.796;2022-10-16T11:41:14;24.60;99.90
7360;DHT22;3720;48.274;7.796;2022-10-16T11:43:56;24.70;99.90
7360;DHT22;3720;48.274;7.796;2022-10-16T11:46:33;24.80;99.90
7360;DHT22;3720;48.274;7.796;2022-10-16T11:49:10;24.80;99.90
7360;DHT22;3720;48.274;7.796;2022-10-16T11:51:50;24.70;99.90
7360;DHT22;3720;48.274;7.796;2022-10-16T11:54:30;24.70;99.90
7360;DHT22;3720;48.274;7.796;2022-10-16T11:57:19;24.80;99.90
7360;DHT22;3720;48.274;7.796;2022-10-16T11:59:56;25.00;99.90
7360;DHT22;3720;48.274;7.796;2022-10-16T12:02:43;25.40;99.90
7360;DHT22;3720;48.274;7.796;2022-10-16T12:05:24;25.80;99.90
7360;DHT22;3720;48.274;7.796;2022-10-16T12:08:04;26.10;99.90
7360;DHT22;3720;48.274;7.796;2022-10-16T12:10:38;26.20;99.90
7360;DHT22;3720;48.274;7.796;2022-10-16T12:13:38;26.10;99.90
7360;DHT22;3720;48.274;7.796;2022-10-16T12:16:22;25.90;99.90
7360;DHT22;3720;48.274;7.796;2022-10-16T12:19:11;25.60;99.90
7360;DHT22;3720;48.274;7.796;2022-10-16T12:21:44;25.50;99.90
7360;DHT22;3720;48.274;7.796;2022-10-16T12:24:32;25.30;99.90
7360;DHT22;3720;48.274;7.796;2022-10-16T12:27:05;25.20;99.90
7360;DHT22;3720;48.274;7.796;2022-10-16T12:29:38;25.20;99.90
7360;DHT22;3720;48.274;7.796;2022-10-16T12:32:25;25.20;99.90
7360;DHT22;3720;48.274;7.796;2022-10-16T12:35:01;25.10;99.90
7360;DHT22;3720;48.274;7.796;2022-10-16T12:37:35;25.10;99.90
7360;DHT22;3720;48.274;7.796;2022-10-16T12:40:13;25.10;99.90
7360;DHT22;3720;48.274;7.796;2022-10-16T12:42:46;25.10;99.90
7360;DHT22;3720;48.274;7.796;2022-10-16T12:45:27;25.00;99.90
7360;DHT22;3720;48.274;7.796;2022-10-16T12:48:01;25.00;99.90
7360;DHT22;3720;48.274;7.796;2022-10-16T12:50:37;25.00;99.90
7360;DHT22;3720;48.274;7.796;2022-10-16T12:53:18;25.10;99.90
7360;DHT22;3720;48.274;7.796;2022-10-16T12:55:59;25.20;99.90
7360;DHT22;3720;48.274;7.796;2022-10-16T12:58:56;25.30;99.90
7360;DHT22;3720;48.274;7.796;2022-10-16T13:01:48;25.60;99.90
7360;DHT22;3720;48.274;7.796;2022-10-16T13:04:47;25.90;99.90
7360;DHT22;3720;48.274;7.796;2022-10-16T13:07:36;26.40;99.90
7360;DHT22;3720;48.274;7.796;2022-10-16T13:10:20;26.70;99.90
7360;DHT22;3720;48.274;7.796;2022-10-16T13:13:13;27.10;99.90
7360;DHT22;3720;48.274;7.796;2022-10-16T13:15:57;27.50;99.90
7360;DHT22;3720;48.274;7.796;2022-10-16T13:18:39;27.80;99.90
7360;DHT22;3720;48.274;7.796;2022-10-16T13:21:23;28.00;99.90
7360;DHT22;3720;48.274;7.796;2022-10-16T13:24:06;28.10;99.90
7360;DHT22;3720;48.274;7.796;2022-10-16T13:26:46;28.10;99.90
7360;DHT22;3720;48.274;7.796;2022-10-16T13:29:21;28.30;99.90
7360;DHT22;3720;48.274;7.796;2022-10-16T13:31:53;28.40;99.90
7360;DHT22;3720;48.274;7.796;2022-10-16T13:34:25;28.70;99.90
7360;DHT22;3720;48.274;7.796;2022-10-16T13:36:58;28.90;99.90
7360;DHT22;3720;48.274;7.796;2022-10-16T13:39:31;29.20;99.90
7360;DHT22;3720;48.274;7.796;2022-10-16T13:42:05;29.20;99.90
7360;DHT22;3720;48.274;7.796;2022-10-16T13:44:41;29.30;99.90
7360;DHT22;3720;48.274;7.796;2022-10-16T13:47:16;29.30;99.90
7360;DHT22;3720;48.274;7.796;2022-10-16T13:49:59;29.30;99.90
7360;DHT22;3720;48.274;7.796;2022-10-16T13:52:32;29.30;99.90
7360;DHT22;3720;48.274;7.796;2022-10-16T13:55:10;29.40;99.90
7360;DHT22;3720;48.274;7.796;2022-10-16T13:57:44;29.50;99.90
7360;DHT22;3720;48.274;7.796;2022-10-16T14:00:22;29.30;99.90
7360;DHT22;3720;48.274;7.796;2022-10-16T14:02:58;29.10;99.90
7360;DHT22;3720;48.274;7.796;2022-10-16T14:05:32;28.90;99.90
7360;DHT22;3720;48.274;7.796;2022-10-16T14:08:05;28.80;99.90
7360;DHT22;3720;48.274;7.796;2022-10-16T14:10:38;28.90;99.90
7360;DHT22;3720;48.274;7.796;2022-10-16T14:13:16;29.10;99.90
7360;DHT22;3720;48.274;7.796;2022-10-16T14:15:51;29.10;99.90
7360;DHT22;3720;48.274;7.796;2022-10-16T14:18:26;29.10;99.90
7360;DHT22;3720;48.274;7.796;2022-10-16T14:21:04;28.90;99.90
7360;DHT22;3720;48.274;7.796;2022-10-16T14:23:37;28.60;99.90
7360;DHT22;3720;48.274;7.796;2022-10-16T14:26:17;28.50;99.90
7360;DHT22;3720;48.274;7.796;2022-10-16T14:29:01;28.50;99.90
7360;DHT22;3720;48.274;7.796;2022-10-16T14:31:35;28.40;99.90
7360;DHT22;3720;48.274;7.796;2022-10-16T14:34:23;28.50;99.90
7360;DHT22;3720;48.274;7.796;2022-10-16T14:36:58;28.50;99.90
7360;DHT22;3720;48.274;7.796;2022-10-16T14:39:31;28.50;99.90
7360;DHT22;3720;48.274;7.796;2022-10-16T14:42:04;28.50;99.90
7360;DHT22;3720;48.274;7.796;2022-10-16T14:44:36;28.70;99.90
7360;DHT22;3720;48.274;7.796;2022-10-16T14:47:13;28.80;99.90
7360;DHT22;3720;48.274;7.796;2022-10-16T14:49:46;28.90;99.90
7360;DHT22;3720;48.274;7.796;2022-10-16T14:52:17;28.80;99.90
7360;DHT22;3720;48.274;7.796;2022-10-16T14:54:50;28.70;99.90
7360;DHT22;3720;48.274;7.796;2022-10-16T14:57:27;28.60;99.90
7360;DHT22;3720;48.274;7.796;2022-10-16T15:00:04;28.70;99.90
7360;DHT22;3720;48.274;7.796;2022-10-16T15:02:40;28.80;99.90
7360;DHT22;3720;48.274;7.796;2022-10-16T15:05:15;28.80;99.90
7360;DHT22;3720;48.274;7.796;2022-10-16T15:07:48;28.90;99.90
7360;DHT22;3720;48.274;7.796;2022-10-16T15:10:21;28.90;99.90
7360;DHT22;3720;48.274;7.796;2022-10-16T15:12:55;29.00;99.90
7360;DHT22;3720;48.274;7.796;2022-10-16T15:15:33;29.00;99.90
7360;DHT22;3720;48.274;7.796;2022-10-16T15:18:06;28.90;99.90
7360;DHT22;3720;48.274;7.796;2022-10-16T15:20:39;29.00;99.90
7360;DHT22;3720;48.274;7.796;2022-10-16T15:23:14;29.00;99.90
7360;DHT22;3720;48.274;7.796;2022-10-16T15:25:48;28.90;99.90
7360;DHT22;3720;48.274;7.796;2022-10-16T15:28:23;28.90;99.90
7360;DHT22;3720;48.274;7.796;2022-10-16T15:30:56;28.60;99.90
7360;DHT22;3720;48.274;7.796;2022-10-16T15:33:29;28.30;99.90
7360;DHT22;3720;48.274;7.796;2022-10-16T15:36:05;28.10;99.90
7360;DHT22;3720;48.274;7.796;2022-10-16T15:38:37;27.70;99.90
7360;DHT22;3720;48.274;7.796;2022-10-16T15:41:08;27.40;99.90
7360;DHT22;3720;48.274;7.796;2022-10-16T15:43:42;27.10;99.90
7360;DHT22;3720;48.274;7.796;2022-10-16T15:46:14;26.80;99.90
7360;DHT22;3720;48.274;7.796;2022-10-16T15:48:47;26.60;99.90
7360;DHT22;3720;48.274;7.796;2022-10-16T15:51:19;26.30;99.90
7360;DHT22;3720;48.274;7.796;2022-10-16T15:53:51;26.20;99.90
7360;DHT22;3720;48.274;7.796;2022-10-16T15:56:24;26.20;99.90
7360;DHT22;3720;48.274;7.796;2022-10-16T15:58:58;26.20;99.90
7360;DHT22;3720;48.274;7.796;2022-10-16T16:01:32;26.20;99.90
7360;DHT22;3720;48.274;7.796;2022-10-16T16:04:04;26.10;99.90
7360;DHT22;3720;48.274;7.796;2022-10-16T16:06:36;26.10;99.90
7360;DHT22;3720;48.274;7.796;2022-10-16T16:09:10;25.90;99.90
7360;DHT22;3720;48.274;7.796;2022-10-16T16:11:42;25.70;99.90
7360;DHT22;3720;48.274;7.796;2022-10-16T16:14:16;25.50;99.90
7360;DHT22;3720;48.274;7.796;2022-10-16T16:16:47;25.20;99.90
7360;DHT22;3720;48.274;7.796;2022-10-16T16:19:20;25.10;99.90
7360;DHT22;3720;48.274;7.796;2022-10-16T16:21:52;24.90;99.90
7360;DHT22;3720;48.274;7.796;2022-10-16T16:24:24;24.60;99.90
7360;DHT22;3720;48.274;7.796;2022-10-16T16:26:56;24.40;99.90
7360;DHT22;3720;48.274;7.796;2022-10-16T16:29:29;24.10;99.90
7360;DHT22;3720;48.274;7.796;2022-10-16T16:32:01;23.90;99.90
7360;DHT22;3720;48.274;7.796;2022-10-16T16:34:33;23.70;99.90
7360;DHT22;3720;48.274;7.796;2022-10-16T16:37:05;23.50;99.90
7360;DHT22;3720;48.274;7.796;2022-10-16T16:39:37;23.30;99.90
7360;DHT22;3720;48.274;7.796;2022-10-16T16:42:09;23.10;99.90
7360;DHT22;3720;48.274;7.796;2022-10-16T16:44:42;22.90;99.90
7360;DHT22;3720;48.274;7.796;2022-10-16T16:47:14;22.70;99.90
7360;DHT22;3720;48.274;7.796;2022-10-16T16:49:46;22.50;99.90
7360;DHT22;3720;48.274;7.796;2022-10-16T16:52:18;22.40;99.90
7360;DHT22;3720;48.274;7.796;2022-10-16T16:54:50;22.20;99.90